Terminal Aerodrome Forecast
Issued by NWS Tulsa, OK

Home | Current Version | Previous Version | Text Only | Print | Product List | Glossary On
Versions: 1 2 3 4 5 6 7 8 9 10 11 12 13 14 15 16
548
FTUS44 KTSA 091720
TAFTUL
TAF
KTUL 091720Z 0918/1018 33015G26KT P6SM FEW080
     FM100000 36006KT P6SM FEW250
     FM100600 VRB04KT P6SM SCT250
     FM101500 18010KT P6SM SCT250=

USA.gov is the U.S. government's official web portal to all federal, state and local government web resources and services.